Home > Products > Valid Products > TAF

000
FTUS44 KBRO 301122
TAFHRL
TAF
KHRL 301122Z 3012/3112 00000KT P6SM FEW025
     FM301500 16008KT P6SM SCT025 SCT040
     FM301700 14012G18KT P6SM VCSH SCT030 BKN040
     FM302200 12011KT P6SM SCT050 BKN250
     FM310900 14006KT P6SM BKN025=



000
FTUS44 KBRO 301122
TAFBRO
TAF
KBRO 301122Z 3012/3112 00000KT P6SM FEW025
     FM301400 16010KT P6SM VCSH SCT025 SCT040
     FM301600 14012G18KT P6SM VCSH SCT030 BKN040
     FM302200 12010KT P6SM SCT040 BKN250
     FM310900 14006KT P6SM BKN025=



000
FTUS44 KBRO 301122
TAFMFE
TAF
KMFE 301122Z 3012/3112 06004KT P6SM FEW025
     FM301700 14012KT P6SM SCT025 SCT040
     FM302100 12015KT P6SM SCT050 BKN250
     FM310600 14006KT P6SM BKN025=



000
FTUS44 KBRO 301122
TAFMFE
TAF
KMFE 301122Z 3012/3112 06004KT P6SM FEW025
     FM301700 14012KT P6SM SCT025 SCT040
     FM302100 12015KT P6SM SCT050 BKN250
     FM310600 14006KT P6SM BKN025=



000
FTUS44 KBRO 301122
TAFHRL
TAF
KHRL 301122Z 3012/3112 00000KT P6SM FEW025
     FM301500 16008KT P6SM SCT025 SCT040
     FM301700 14012G18KT P6SM VCSH SCT030 BKN040
     FM302200 12011KT P6SM SCT050 BKN250
     FM310900 14006KT P6SM BKN025=



000
FTUS44 KBRO 301122
TAFBRO
TAF
KBRO 301122Z 3012/3112 00000KT P6SM FEW025
     FM301400 16010KT P6SM VCSH SCT025 SCT040
     FM301600 14012G18KT P6SM VCSH SCT030 BKN040
     FM302200 12010KT P6SM SCT040 BKN250
     FM310900 14006KT P6SM BKN025=



000
FTUS44 KBRO 300526
TAFHRL
TAF
KHRL 300526Z 3006/3106 10004KT P6SM SKC
     FM301500 16008KT P6SM SCT040
     FM301700 14012G18KT P6SM VCSH SCT030 BKN040
     FM302200 12011KT P6SM SCT050 BKN250=



000
FTUS44 KBRO 300526
TAFBRO
TAF
KBRO 300526Z 3006/3106 13003KT P6SM SKC
     FM301500 16010KT P6SM SCT040
     FM301800 14012G18KT P6SM VCSH SCT030 BKN040
     FM302200 12010KT P6SM SCT040 BKN250=



000
FTUS44 KBRO 300526
TAFMFE
TAF
KMFE 300526Z 3006/3106 13005KT P6SM SKC
     FM301700 14012KT P6SM SCT040
     FM302100 12015KT P6SM SCT050 BKN250=



000
FTUS44 KBRO 292332
TAFBRO
TAF
KBRO 292332Z 3000/3024 11012G17KT P6SM FEW040
     FM300300 13003KT P6SM FEW025
     FM301500 16010KT P6SM SCT040 PROB30 3015/3018 -SHRA SCT030
      BKN040
     FM301800 12012KT P6SM SCT060=



000
FTUS44 KBRO 292332
TAFHRL
TAF
KHRL 292332Z 3000/3024 11015KT P6SM FEW040
     FM300300 12003KT P6SM FEW025
     FM301500 15010KT P6SM SCT040 PROB30 3015/3018 -SHRA SCT030
      BKN040
     FM301800 12013KT P6SM SCT060=



000
FTUS44 KBRO 292332
TAFMFE
TAF
KMFE 292332Z 3000/3024 10012KT P6SM FEW040
     FM300400 14005KT P6SM FEW025
     FM301500 15010KT P6SM SCT040 PROB30 3015/3018 -SHRA SCT030
      BKN040
     FM302100 12015KT P6SM SCT050=



000
FTUS44 KBRO 292332
TAFBRO
TAF
KBRO 292332Z 3000/3024 11012G17KT P6SM FEW040
     FM300300 13003KT P6SM FEW025
     FM301500 16010KT P6SM SCT040 PROB30 3015/3018 -SHRA SCT030
      BKN040
     FM301800 12012KT P6SM SCT060=



000
FTUS44 KBRO 292332
TAFMFE
TAF
KMFE 292332Z 3000/3024 10012KT P6SM FEW040
     FM300400 14005KT P6SM FEW025
     FM301500 15010KT P6SM SCT040 PROB30 3015/3018 -SHRA SCT030
      BKN040
     FM302100 12015KT P6SM SCT050=



000
FTUS44 KBRO 292332
TAFHRL
TAF
KHRL 292332Z 3000/3024 11015KT P6SM FEW040
     FM300300 12003KT P6SM FEW025
     FM301500 15010KT P6SM SCT040 PROB30 3015/3018 -SHRA SCT030
      BKN040
     FM301800 12013KT P6SM SCT060=



000
FTUS44 KBRO 291720
TAFBRO
TAF
KBRO 291720Z 2918/3018 VRB05KT P6SM SCT045
     FM301500 16010KT P6SM SCT040 PROB30 3015/3018 -SHRA SCT030
      BKN040=



000
FTUS44 KBRO 291720
TAFHRL
TAF
KHRL 291720Z 2918/3018 VRB05KT P6SM FEW045
     FM301500 15010KT P6SM SCT040 PROB30 3015/3018 -SHRA SCT030
      BKN040=



000
FTUS44 KBRO 291720
TAFMFE
TAF
KMFE 291720Z 2918/3018 VRB05KT P6SM FEW040 FEW050
     FM301500 15010KT P6SM SCT040 PROB30 3015/3018 -SHRA SCT030
      BKN040=



000
FTUS44 KBRO 291123
TAFMFE
TAF
KMFE 291123Z 2912/3012 02003KT P6SM SKC
     FM291600 12008KT P6SM FEW040=



000
FTUS44 KBRO 291123
TAFBRO
TAF
KBRO 291123Z 2912/3012 02003KT P6SM SKC
     FM291500 12010KT P6SM FEW040
     FM300300 14004KT P6SM FEW030=



000
FTUS44 KBRO 291123
TAFHRL
TAF
KHRL 291123Z 2912/3012 02004KT P6SM SKC
     FM291600 11011KT P6SM FEW050
     FM300300 14004KT P6SM FEW030=



000
FTUS44 KBRO 291123
TAFHRL
TAF
KHRL 291123Z 2912/3012 02004KT P6SM SKC
     FM291600 11011KT P6SM FEW050
     FM300300 14004KT P6SM FEW030=



000
FTUS44 KBRO 291123
TAFMFE
TAF
KMFE 291123Z 2912/3012 02003KT P6SM SKC
     FM291600 12008KT P6SM FEW040=



000
FTUS44 KBRO 291123
TAFBRO
TAF
KBRO 291123Z 2912/3012 02003KT P6SM SKC
     FM291500 12010KT P6SM FEW040
     FM300300 14004KT P6SM FEW030=



000
FTUS44 KBRO 290523
TAFHRL
TAF
KHRL 290523Z 2906/3006 12006KT P6SM SKC
     FM291500 12008KT P6SM SCT040
     FM292000 11013KT P6SM FEW060=



000
FTUS44 KBRO 290523
TAFBRO
TAF
KBRO 290523Z 2906/3006 11004KT P6SM SKC
     FM291500 12008KT P6SM SCT040
     FM292000 11012KT P6SM FEW060=



000
FTUS44 KBRO 290523
TAFMFE
TAF
KMFE 290523Z 2906/3006 12008KT P6SM SKC
     FM291600 12008KT P6SM FEW040=



000
FTUS44 KBRO 290523
TAFMFE
TAF
KMFE 290523Z 2906/3006 12008KT P6SM SKC
     FM291600 12008KT P6SM FEW040=



000
FTUS44 KBRO 290523
TAFBRO
TAF
KBRO 290523Z 2906/3006 11004KT P6SM SKC
     FM291500 12008KT P6SM SCT040
     FM292000 11012KT P6SM FEW060=



000
FTUS44 KBRO 290523
TAFHRL
TAF
KHRL 290523Z 2906/3006 12006KT P6SM SKC
     FM291500 12008KT P6SM SCT040
     FM292000 11013KT P6SM FEW060=



000
FTUS44 KBRO 282321
TAFBRO
TAF
KBRO 282321Z 2900/2924 08010KT P6SM FEW050
     FM290300 VRB03KT P6SM SCT025
     FM291500 12008KT P6SM SCT040
     FM292000 11012KT P6SM FEW060=



000
FTUS44 KBRO 282321
TAFMFE
TAF
KMFE 282321Z 2900/2924 11012KT P6SM FEW060
     FM290600 VRB03KT P6SM FEW025
     FM291600 12008KT P6SM SCT040
     FM292000 11013KT P6SM FEW060=



000
FTUS44 KBRO 282321
TAFHRL
TAF
KHRL 282321Z 2900/2924 10008KT P6SM FEW050
     FM290300 VRB03KT P6SM SCT025
     FM291500 12008KT P6SM SCT040
     FM292000 11013KT P6SM FEW060=



000
FTUS44 KBRO 282321
TAFBRO
TAF
KBRO 282321Z 2900/2924 08010KT P6SM FEW050
     FM290300 VRB03KT P6SM SCT025
     FM291500 12008KT P6SM SCT040
     FM292000 11012KT P6SM FEW060=



000
FTUS44 KBRO 282321
TAFMFE
TAF
KMFE 282321Z 2900/2924 11012KT P6SM FEW060
     FM290600 VRB03KT P6SM FEW025
     FM291600 12008KT P6SM SCT040
     FM292000 11013KT P6SM FEW060=



000
FTUS44 KBRO 282321
TAFHRL
TAF
KHRL 282321Z 2900/2924 10008KT P6SM FEW050
     FM290300 VRB03KT P6SM SCT025
     FM291500 12008KT P6SM SCT040
     FM292000 11013KT P6SM FEW060=



000
FTUS44 KBRO 282002 AAB
TAFBRO
TAF AMD
KBRO 282002Z 2820/2918 09010G15KT P6SM SCT040
     FM290300 VRB03KT P6SM SCT025
     FM291500 12006KT P6SM SCT040=



000
FTUS44 KBRO 282002 AAB
TAFBRO
TAF AMD
KBRO 282002Z 2820/2918 09010G15KT P6SM SCT040
     FM290300 VRB03KT P6SM SCT025
     FM291500 12006KT P6SM SCT040=



000
FTUS44 KBRO 281900 AAA
TAFHRL
TAF AMD
KHRL 281900Z 2819/2918 07010G16KT P6SM SCT040
     FM290300 VRB03KT P6SM SCT025
     FM291500 12007KT P6SM SCT040=



000
FTUS44 KBRO 281900 AAA
TAFHRL
TAF AMD
KHRL 281900Z 2819/2918 07010G16KT P6SM SCT040
     FM290300 VRB03KT P6SM SCT025
     FM291500 12007KT P6SM SCT040=



000
FTUS44 KBRO 281735
TAFBRO
TAF
KBRO 281735Z 2818/2918 10008KT P6SM SCT040
     FM290300 VRB03KT P6SM SCT025
     FM291500 12006KT P6SM SCT040=



000
FTUS44 KBRO 281735
TAFMFE
TAF
KMFE 281735Z 2818/2918 10010KT P6SM SCT040
     FM290600 VRB03KT P6SM FEW025
     FM291600 12006KT P6SM SCT040=



000
FTUS44 KBRO 281735
TAFHRL
TAF
KHRL 281735Z 2818/2918 10008KT P6SM SCT040
     FM290300 VRB03KT P6SM SCT025
     FM291500 12007KT P6SM SCT040=



000
FTUS44 KBRO 281704 AAA
TAFHRL
TAF AMD
KHRL 281704Z 2817/2912 VRB04KT P6SM SCT040
     FM281900 09010G15KT P6SM SCT040
     FM290300 10004KT P6SM FEW025=



000
FTUS44 KBRO 281704 AAA
TAFHRL
TAF AMD
KHRL 281704Z 2817/2912 VRB04KT P6SM SCT040
     FM281900 09010G15KT P6SM SCT040
     FM290300 10004KT P6SM FEW025=



000
FTUS44 KBRO 281557 AAA
TAFBRO
TAF AMD
KBRO 281557Z 2816/2912 VRB04KT P6SM SCT035
     FM281900 08010G15KT P6SM SCT040
     FM290300 10004KT P6SM FEW025=



000
FTUS44 KBRO 281122
TAFMFE
TAF
KMFE 281122Z 2812/2912 00000KT P6SM SKC
     FM281700 10010KT P6SM FEW050=



000
FTUS44 KBRO 281122
TAFHRL
TAF
KHRL 281122Z 2812/2912 29003KT P6SM SKC
     FM281700 09010G15KT P6SM FEW040
     FM290300 10004KT P6SM FEW025=



000
FTUS44 KBRO 281122
TAFBRO
TAF
KBRO 281122Z 2812/2912 31003KT P6SM FEW040
     FM281530 08010G15KT P6SM FEW040
     FM290300 10004KT P6SM FEW025=



000
FTUS44 KBRO 281122
TAFBRO
TAF
KBRO 281122Z 2812/2912 31003KT P6SM FEW040
     FM281530 08010G15KT P6SM FEW040
     FM290300 10004KT P6SM FEW025=



000
FTUS44 KBRO 281122
TAFHRL
TAF
KHRL 281122Z 2812/2912 29003KT P6SM SKC
     FM281700 09010G15KT P6SM FEW040
     FM290300 10004KT P6SM FEW025=



000
FTUS44 KBRO 281122
TAFMFE
TAF
KMFE 281122Z 2812/2912 00000KT P6SM SKC
     FM281700 10010KT P6SM FEW050=



000
FTUS44 KBRO 280527
TAFMFE
TAF
KMFE 280527Z 2806/2906 11005KT P6SM SKC
     FM281700 10010KT P6SM FEW050=



000
FTUS44 KBRO 280527
TAFBRO
TAF
KBRO 280527Z 2806/2906 00000KT P6SM SKC
     FM281530 08010G15KT P6SM FEW040=



000
FTUS44 KBRO 280527
TAFHRL
TAF
KHRL 280527Z 2806/2906 06004KT P6SM SKC
     FM281700 09010G15KT P6SM FEW040=



000
FTUS44 KBRO 272340
TAFMFE
TAF
KMFE 272340Z 2800/2824 05007KT P6SM SCT250
     FM280200 VRB04KT P6SM FEW025
     FM281700 10010KT P6SM FEW035=



000
FTUS44 KBRO 272340
TAFHRL
TAF
KHRL 272340Z 2800/2824 08008KT P6SM SCT250
     FM280200 VRB04KT P6SM FEW025
     FM281700 09010KT P6SM FEW035=



000
FTUS44 KBRO 272340
TAFBRO
TAF
KBRO 272340Z 2800/2824 07009KT P6SM SCT250
     FM280200 VRB04KT P6SM FEW025
     FM281700 08010KT P6SM FEW035=



000
FTUS44 KBRO 272340
TAFHRL
TAF
KHRL 272340Z 2800/2824 08008KT P6SM SCT250
     FM280200 VRB04KT P6SM FEW025
     FM281700 09010KT P6SM FEW035=



000
FTUS44 KBRO 272340
TAFMFE
TAF
KMFE 272340Z 2800/2824 05007KT P6SM SCT250
     FM280200 VRB04KT P6SM FEW025
     FM281700 10010KT P6SM FEW035=



000
FTUS44 KBRO 272340
TAFBRO
TAF
KBRO 272340Z 2800/2824 07009KT P6SM SCT250
     FM280200 VRB04KT P6SM FEW025
     FM281700 08010KT P6SM FEW035=



000
FTUS44 KBRO 271729
TAFHRL
TAF
KHRL 271729Z 2718/2818 05012KT P6SM FEW040
     FM280100 VRB04KT P6SM SKC
     FM281200 VRB04KT P6SM FEW030
     FM281700 09006KT P6SM SKC=



000
FTUS44 KBRO 271729
TAFBRO
TAF
KBRO 271729Z 2718/2818 07012KT P6SM FEW040
     FM280100 VRB04KT P6SM SKC
     FM281200 VRB04KT P6SM FEW030
     FM281700 08006KT P6SM SKC=



000
FTUS44 KBRO 271729
TAFMFE
TAF
KMFE 271729Z 2718/2818 09009KT P6SM SCT040
     FM280200 12007KT P6SM SKC
     FM281200 VRB04KT P6SM FEW030
     FM281700 10006KT P6SM SKC=



000
FTUS44 KBRO 271729
TAFBRO
TAF
KBRO 271729Z 2718/2818 07012KT P6SM FEW040
     FM280100 VRB04KT P6SM SKC
     FM281200 VRB04KT P6SM FEW030
     FM281700 08006KT P6SM SKC=



000
FTUS44 KBRO 271729
TAFMFE
TAF
KMFE 271729Z 2718/2818 09009KT P6SM SCT040
     FM280200 12007KT P6SM SKC
     FM281200 VRB04KT P6SM FEW030
     FM281700 10006KT P6SM SKC=



000
FTUS44 KBRO 271729
TAFHRL
TAF
KHRL 271729Z 2718/2818 05012KT P6SM FEW040
     FM280100 VRB04KT P6SM SKC
     FM281200 VRB04KT P6SM FEW030
     FM281700 09006KT P6SM SKC=



000
FTUS44 KBRO 271625 AAA
TAFHRL
TAF AMD
KHRL 271625Z 2716/2812 03012KT P6SM SKC
     FM280100 VRB04KT P6SM SKC=



    US Dept of Commerce
    National Oceanic and Atmospheric Administration
    National Weather Service
    1325 East West Highway
    Silver Spring, MD 20910
    Page Author: NWS Internet Services Team
Disclaimer
Information Quality
Credits
Glossary
Privacy Policy
Freedom of Information Act (FOIA)
About Us
Career Opportunities